地図

経路データ

SID SEASON NUMBER BASIN SUBBASIN NAME ISO_TIME NATURE LAT LON WMO_WIND WMO_PRES WMO_AGENCY TRACK_TYPE DIST2LAND LANDFALL IFLAG USA_AGENCY USA_ATCF_ID USA_LAT USA_LON USA_RECORD USA_STATUS USA_WIND USA_PRES USA_SSHS USA_R34_NE USA_R34_SE USA_R34_SW USA_R34_NW USA_R50_NE USA_R50_SE USA_R50_SW USA_R50_NW USA_R64_NE USA_R64_SE USA_R64_SW USA_R64_NW USA_POCI USA_ROCI USA_RMW USA_EYE TOKYO_LAT TOKYO_LON TOKYO_GRADE TOKYO_WIND TOKYO_PRES TOKYO_R50_DIR TOKYO_R50_LONG TOKYO_R50_SHORT TOKYO_R30_DIR TOKYO_R30_LONG TOKYO_R30_SHORT TOKYO_LAND CMA_LAT CMA_LON CMA_CAT CMA_WIND CMA_PRES HKO_LAT HKO_LON HKO_CAT HKO_WIND HKO_PRES NEWDELHI_LAT NEWDELHI_LON NEWDELHI_GRADE NEWDELHI_WIND NEWDELHI_PRES NEWDELHI_CI NEWDELHI_DP NEWDELHI_POCI REUNION_LAT REUNION_LON REUNION_TYPE REUNION_WIND REUNION_PRES REUNION_TNUM REUNION_CI REUNION_RMW REUNION_R34_NE REUNION_R34_SE REUNION_R34_SW REUNION_R34_NW REUNION_R50_NE REUNION_R50_SE REUNION_R50_SW REUNION_R50_NW REUNION_R64_NE REUNION_R64_SE REUNION_R64_SW REUNION_R64_NW BOM_LAT BOM_LON BOM_TYPE BOM_WIND BOM_PRES BOM_TNUM BOM_CI BOM_RMW BOM_R34_NE BOM_R34_SE BOM_R34_SW BOM_R34_NW BOM_R50_NE BOM_R50_SE BOM_R50_SW BOM_R50_NW BOM_R64_NE BOM_R64_SE BOM_R64_SW BOM_R64_NW BOM_ROCI BOM_POCI BOM_EYE BOM_POS_METHOD BOM_PRES_METHOD NADI_LAT NADI_LON NADI_CAT NADI_WIND NADI_PRES WELLINGTON_LAT WELLINGTON_LON WELLINGTON_WIND WELLINGTON_PRES DS824_LAT DS824_LON DS824_STAGE DS824_WIND DS824_PRES TD9636_LAT TD9636_LON TD9636_STAGE TD9636_WIND TD9636_PRES TD9635_LAT TD9635_LON TD9635_WIND TD9635_PRES TD9635_ROCI NEUMANN_LAT NEUMANN_LON NEUMANN_CLASS NEUMANN_WIND NEUMANN_PRES MLC_LAT MLC_LON MLC_CLASS MLC_WIND MLC_PRES USA_GUST BOM_GUST BOM_GUST_PER REUNION_GUST REUNION_GUST_PER USA_SEAHGT USA_SEARAD_NE USA_SEARAD_SE USA_SEARAD_SW USA_SEARAD_NW STORM_SPEED STORM_DIR
1994190N13239 1994 44 EP MM DANIEL 1994-07-08 12:00:00 TS 12.5000 -121.300 25 1009 hurdat_epa main 1667 1667 O_____________ hurdat_epa EP041994 12.5000 -121.300 TD 25 1009 -1 14 254
1994190N13239 1994 44 EP MM DANIEL 1994-07-08 15:00:00 TS 12.3054 -122.010 main 1734 1734 P_____________ EP041994 12.3054 -122.010 TD 27 1008 -1 14 254
1994190N13239 1994 44 EP MM DANIEL 1994-07-08 18:00:00 TS 12.1000 -122.700 30 1007 hurdat_epa main 1797 1797 O_____________ hurdat_epa EP041994 12.1000 -122.700 TD 30 1007 -1 14 252
1994190N13239 1994 44 EP MM DANIEL 1994-07-08 21:00:00 TS 11.8848 -123.357 main 1861 1861 P_____________ EP041994 11.8848 -123.357 TD 32 1006 -1 13 253
1994190N13239 1994 44 EP MM DANIEL 1994-07-09 00:00:00 TS 11.7000 -124.000 35 1005 hurdat_epa main 1919 1919 O_____________ hurdat_epa EP041994 11.7000 -124.000 TS 35 1005 0 13 256
1994190N13239 1994 44 EP MM DANIEL 1994-07-09 03:00:00 TS 11.5699 -124.657 main 1977 1977 P_____________ EP041994 11.5699 -124.657 TS 37 1004 0 13 261
1994190N13239 1994 44 EP MM DANIEL 1994-07-09 06:00:00 TS 11.5000 -125.300 40 1003 hurdat_epa main 2028 2028 O_____________ hurdat_epa EP041994 11.5000 -125.300 TS 40 1003 0 12 266
1994190N13239 1994 44 EP MM DANIEL 1994-07-09 09:00:00 TS 11.4848 -125.900 main 2072 2072 P_____________ EP041994 11.4848 -125.900 TS 42 1001 0 12 270
1994190N13239 1994 44 EP MM DANIEL 1994-07-09 12:00:00 TS 11.5000 -126.500 45 1000 hurdat_epa main 2117 2117 O_____________ hurdat_epa EP041994 11.5000 -126.500 TS 45 1000 0 12 271
1994190N13239 1994 44 EP MM DANIEL 1994-07-09 15:00:00 TS 11.4998 -127.128 main 2162 2162 P_____________ EP041994 11.4998 -127.128 TS 50 996 0 13 270
1994190N13239 1994 44 EP MM DANIEL 1994-07-09 18:00:00 TS 11.5000 -127.800 55 993 hurdat_epa main 2216 2216 O_____________ hurdat_epa EP041994 11.5000 -127.800 TS 55 993 0 14 270
1994190N13239 1994 44 EP MM DANIEL 1994-07-09 21:00:00 TS 11.4925 -128.543 main 2271 2271 P_____________ EP041994 11.4925 -128.543 TS 55 993 0 15 270
1994190N13239 1994 44 EP MM DANIEL 1994-07-10 00:00:00 TS 11.5000 -129.300 55 994 hurdat_epa main 2336 2336 O_____________ hurdat_epa EP041994 11.5000 -129.300 TS 55 994 0 14 272
1994190N13239 1994 44 EP MM DANIEL 1994-07-10 03:00:00 TS 11.5347 -130.000 main 2393 2393 P_____________ EP041994 11.5347 -130.000 TS 55 994 0 14 274
1994190N13239 1994 44 EP MM DANIEL 1994-07-10 06:00:00 TS 11.6000 -130.700 55 994 hurdat_epa main 2432 2432 O_____________ hurdat_epa EP041994 11.6000 -130.700 TS 55 994 0 14 276
1994190N13239 1994 44 EP MM DANIEL 1994-07-10 09:00:00 TS 11.6847 -131.428 main 2473 2473 P_____________ EP041994 11.6847 -131.428 TS 55 994 0 15 278
1994190N13239 1994 44 EP MM DANIEL 1994-07-10 12:00:00 TS 11.8000 -132.200 55 994 hurdat_epa main 2523 2481 O_____________ hurdat_epa EP041994 11.8000 -132.200 TS 55 994 0 16 279
1994190N13239 1994 44 EP MM DANIEL 1994-07-10 15:00:00 TS 11.9349 -133.035 main 2481 2382 P_____________ EP041994 11.9349 -133.035 TS 55 994 0 17 280
1994190N13239 1994 44 EP MM DANIEL 1994-07-10 18:00:00 TS 12.1000 -133.900 55 994 hurdat_epa main 2382 2293 O_____________ hurdat_epa EP041994 12.1000 -133.900 TS 55 994 0 17 282
1994190N13239 1994 44 EP MM DANIEL 1994-07-10 21:00:00 TS 12.2997 -134.750 main 2293 2195 P_____________ EP041994 12.2997 -134.750 TS 55 994 0 17 283
1994190N13239 1994 44 EP MM DANIEL 1994-07-11 00:00:00 TS 12.4923 -135.608 55 994 hurdat_epa main 2195 2111 O_____________ hurdat_epa EP041994 12.5000 -135.600 TS 55 994 0 17 281
1994190N13239 1994 44 EP MM DANIEL 1994-07-11 03:00:00 TS 12.6381 -136.472 main 2101 2012 P_____________ EP041994 12.6648 -136.458 TS 55 994 0 17 279
1994190N13239 1994 44 EP MM DANIEL 1994-07-11 06:00:00 TS 12.7600 -137.320 55 994 hurdat_epa main 2012 1929 O_____________ hurdat_epa EP041994 12.8000 -137.300 TS 55 994 0 16 278
1994190N13239 1994 44 EP MM DANIEL 1994-07-11 09:00:00 TS 12.8729 -138.142 main 1929 1845 P_____________ EP041994 12.8998 -138.115 TS 55 994 0 16 279
1994190N13239 1994 44 EP MM DANIEL 1994-07-11 12:00:00 TS 13.0000 -138.925 55 994 hurdat_epa main 1845 1762 O_____________ hurdat_epa EP041994 13.0000 -138.900 TS 55 994 0 15 280
1994190N13239 1994 44 EP MM DANIEL 1994-07-11 15:00:00 TS 13.1537 -139.700 main 1757 1684 P_____________ EP041994 13.1500 -139.687 TS 55 994 0 15 282
1994190N13239 1994 44 EP CP DANIEL 1994-07-11 18:00:00 TS 13.3000 -140.400 55 994 hurdat_epa main 1684 1631 O_____________ hurdat_epa EP041994 13.3000 -140.400 TS 55 994 0 13 282
1994190N13239 1994 44 EP CP DANIEL 1994-07-11 21:00:00 TS 13.4071 -140.971 main 1621 1568 P_____________ EP041994 13.4071 -140.973 TS 55 994 0 11 281
1994190N13239 1994 44 EP CP DANIEL 1994-07-12 00:00:00 TS 13.5000 -141.500 55 995 hurdat_epa main 1568 1505 O_____________ hurdat_epa EP041994 13.5000 -141.500 TS 55 995 0 11 280
1994190N13239 1994 44 EP CP DANIEL 1994-07-12 03:00:00 TS 13.6074 -142.085 main 1505 1443 P_____________ EP041994 13.6074 -142.085 TS 55 995 0 12 280
1994190N13239 1994 44 EP CP DANIEL 1994-07-12 06:00:00 TS 13.7000 -142.700 55 996 hurdat_epa main 1443 1380 O_____________ hurdat_epa EP041994 13.7000 -142.700 TS 55 996 0 12 277
1994190N13239 1994 44 EP CP DANIEL 1994-07-12 09:00:00 TS 13.7574 -143.350 main 1371 1315 P_____________ EP041994 13.7574 -143.350 TS 55 996 0 13 275
1994190N13239 1994 44 EP CP DANIEL 1994-07-12 12:00:00 TS 13.8000 -144.000 55 997 hurdat_epa main 1315 1259 O_____________ hurdat_epa EP041994 13.8000 -144.000 TS 55 997 0 12 274
1994190N13239 1994 44 EP CP DANIEL 1994-07-12 15:00:00 TS 13.8424 -144.615 main 1259 1198 P_____________ EP041994 13.8424 -144.615 TS 50 997 0 12 275
1994190N13239 1994 44 EP CP DANIEL 1994-07-12 18:00:00 TS 13.9000 -145.200 45 998 hurdat_epa main 1198 1147 O_____________ hurdat_epa EP041994 13.9000 -145.200 TS 45 998 0 11 277
1994190N13239 1994 44 EP CP DANIEL 1994-07-12 21:00:00 TS 13.9849 -145.765 main 1138 1087 P_____________ EP041994 13.9849 -145.765 TS 45 998 0 11 281
1994190N13239 1994 44 EP CP DANIEL 1994-07-13 00:00:00 TS 14.1000 -146.300 45 999 hurdat_epa main 1087 1037 O_____________ hurdat_epa EP041994 14.1000 -146.300 TS 45 999 0 10 284
1994190N13239 1994 44 EP CP DANIEL 1994-07-13 03:00:00 TS 14.2423 -146.808 main 1037 980 P_____________ EP041994 14.2423 -146.808 TS 45 999 0 10 287
1994190N13239 1994 44 EP CP DANIEL 1994-07-13 06:00:00 TS 14.4000 -147.300 45 1000 hurdat_epa main 980 931 O_____________ hurdat_epa EP041994 14.4000 -147.300 TS 45 1000 0 10 287
1994190N13239 1994 44 EP CP DANIEL 1994-07-13 09:00:00 TS 14.5424 -147.808 main 931 874 P_____________ EP041994 14.5424 -147.808 TS 45 1001 0 10 287
1994190N13239 1994 44 EP CP DANIEL 1994-07-13 12:00:00 TS 14.7000 -148.300 45 1002 hurdat_epa main 874 827 O_____________ hurdat_epa EP041994 14.7000 -148.300 TS 45 1002 0 10 291
1994190N13239 1994 44 EP CP DANIEL 1994-07-13 15:00:00 TS 14.8998 -148.750 main 819 771 P_____________ EP041994 14.8998 -148.750 TS 45 1003 0 10 295
1994190N13239 1994 44 EP CP DANIEL 1994-07-13 18:00:00 TS 15.1000 -149.200 45 1004 hurdat_epa main 771 724 O_____________ hurdat_epa EP041994 15.1000 -149.200 TS 45 1004 0 10 291
1994190N13239 1994 44 EP CP DANIEL 1994-07-13 21:00:00 TS 15.2499 -149.693 main 724 669 P_____________ EP041994 15.2499 -149.693 TS 37 1003 0 10 287
1994190N13239 1994 44 EP CP DANIEL 1994-07-14 00:00:00 TS 15.4000 -150.200 30 1003 hurdat_epa main 669 615 O_____________ hurdat_epa EP041994 15.4000 -150.200 TD 30 1003 -1 10 290
1994190N13239 1994 44 EP CP DANIEL 1994-07-14 03:00:00 TS 15.5922 -150.678 main 615 561 P_____________ EP041994 15.5922 -150.678 TD 30 1003 -1 10 293
1994190N13239 1994 44 EP CP DANIEL 1994-07-14 06:00:00 TS 15.8000 -151.200 30 1003 hurdat_epa main 561 501 O_____________ hurdat_epa EP041994 15.8000 -151.200 TD 30 1003 -1 12 290
1994190N13239 1994 44 EP CP DANIEL 1994-07-14 09:00:00 TS 16.0001 -151.835 main 501 436 P_____________ EP041994 16.0001 -151.835 TD 27 1003 -1 13 288
1994190N13239 1994 44 EP CP DANIEL 1994-07-14 12:00:00 TS 16.2000 -152.500 25 1004 hurdat_epa main 436 381 O_____________ hurdat_epa EP041994 16.2000 -152.500 TD 25 1004 -1 13 288
1994190N13239 1994 44 EP CP DANIEL 1994-07-14 15:00:00 TS 16.4002 -153.117 main 381 331 P_____________ EP041994 16.4002 -153.117 TD 25 1004 -1 12 289
1994190N13239 1994 44 EP CP DANIEL 1994-07-14 18:00:00 TS 16.6000 -153.700 25 1004 hurdat_epa main 331 O_____________ hurdat_epa EP041994 16.6000 -153.700 TD 25 1004 -1 12 290

IBTrACS Databaseについて

本データベースは、米国NOAAが公開する1842年以降の世界の熱帯低気圧のベストトラックデータアーカイブInternational Best Track Archive for Climate Stewardship (IBTrACS)を、ウェブで閲覧しやすい形式に変換したものです。

最終更新日:2021-11-26